Terminal Aerodrome Forecast
Issued by NWS Glasgow, MT

Home | Current Version | Previous Version | Text Only | Print | Product List | Glossary On
Versions: 1 2 3 4 5 6 7 8 9 10 11 12
000
FTUS45 KGGW 191100
TAFGGW
TAF
KGGW 191133Z 1912/2012 30017KT P6SM SCT025
      TEMPO 1912/1913 BKN025
     FM191300 33020G30KT P6SM BKN025
     FM192000 33020G30KT P6SM BKN050
     FM200300 34012KT P6SM SCT070
     FM200600 VRB06KT P6SM SCT080=

USA.gov is the U.S. government's official web portal to all federal, state and local government web resources and services.